Time;durP1;ratioP1;P1;durP2;ratioP2;P2;SDS_P1;SDS_P2;PMS_P1;PMS_P2;Temp;Humidity;BMP_temperature;BMP_pressure;BME280_temperature;BME280_humidity;BME280_pressure;Samples;Min_cycle;Max_cycle;Signal;HPM_P1;HPM_P2
2022/04/30 00:00:16;;;;;;;0.20;0.10;;;;;;;;;;4178959;28;20481;-36
2022/04/30 00:02:17;;;;;;;0.03;0.03;;;;;;;;;;4178912;28;20448;-36
2022/04/30 00:04:19;;;;;;;0.40;0.10;;;;;;;;;;4178636;28;20053;-36
2022/04/30 00:06:20;;;;;;;0.00;0.00;;;;;;;;;;4177889;28;20053;-36
2022/04/30 00:08:21;;;;;;;0.30;0.25;;;;;;;;;;4178824;28;20119;-36
2022/04/30 00:10:23;;;;;;;0.17;0.17;;;;;;;;;;4179100;28;20467;-36
2022/04/30 00:12:25;;;;;;;0.15;0.00;;;;;;;;;;4179304;28;20052;-36
2022/04/30 00:14:27;;;;;;;0.10;0.10;;;;;;;;;;4178980;28;20500;-37
2022/04/30 00:16:28;;;;;;;0.10;0.10;;;;;;;;;;4179198;28;20115;-37
2022/04/30 00:18:30;;;;;;;0.10;0.00;;;;;;;;;;4178397;28;20450;-36
2022/04/30 00:20:36;;;;;;;0.13;0.10;;;;;;;;;;4177588;28;20373;-36
2022/04/30 00:22:37;;;;;;;0.10;0.10;;;;;;;;;;4178958;28;20439;-36
2022/04/30 00:24:39;;;;;;;0.10;0.10;;;;;;;;;;4178903;28;20056;-36
2022/04/30 00:26:40;;;;;;;0.32;0.20;;;;;;;;;;4178909;28;20049;-36
2022/04/30 00:28:41;;;;;;;0.10;0.10;;;;;;;;;;4179043;28;20060;-36
2022/04/30 00:30:44;;;;;;;0.20;0.15;;;;;;;;;;4179057;28;20518;-36
2022/04/30 00:32:46;;;;;;;0.10;0.10;;;;;;;;;;4178449;28;20057;-36
2022/04/30 00:34:48;;;;;;;0.10;0.00;;;;;;;;;;4179141;28;20102;-36
2022/04/30 00:36:49;;;;;;;0.40;0.10;;;;;;;;;;4178719;28;20422;-36
2022/04/30 00:38:50;;;;;;;0.10;0.10;;;;;;;;;;4178753;28;20609;-36
2022/04/30 00:40:51;;;;;;;0.10;0.10;;;;;;;;;;4178844;28;20106;-37
2022/04/30 00:42:53;;;;;;;0.10;0.10;;;;;;;;;;4178690;28;20053;-36
2022/04/30 00:44:54;;;;;;;0.10;0.10;;;;;;;;;;4179030;28;20056;-36
2022/04/30 00:46:55;;;;;;;0.17;0.17;;;;;;;;;;4178596;28;20111;-37
2022/04/30 00:48:58;;;;;;;0.08;0.00;;;;;;;;;;4178319;28;20327;-36
2022/04/30 00:50:59;;;;;;;0.25;0.00;;;;;;;;;;4178566;28;20060;-36
2022/04/30 00:53:02;;;;;;;0.00;0.00;;;;;;;;;;4178799;28;20111;-36
2022/04/30 00:55:05;;;;;;;0.10;0.10;;;;;;;;;;4160917;28;20049;-36
2022/04/30 00:57:09;;;;;;;0.00;0.00;;;;;;;;;;4178565;28;20430;-36
2022/04/30 00:59:17;;;;;;;0.10;0.10;;;;;;;;;;4178568;28;20053;-37
2022/04/30 01:01:18;;;;;;;0.05;0.00;;;;;;;;;;4178828;28;20049;-37
2022/04/30 01:03:45;;;;;;;1.83;0.20;;;;;;;;;;4169526;28;20052;-36
2022/04/30 01:05:48;;;;;;;0.20;0.00;;;;;;;;;;4181760;28;20462;-36
2022/04/30 01:07:49;;;;;;;0.10;0.10;;;;;;;;;;4181609;28;20064;-36
2022/04/30 01:09:51;;;;;;;0.10;0.10;;;;;;;;;;4180399;28;20102;-37
2022/04/30 01:11:59;;;;;;;0.10;0.10;;;;;;;;;;4180243;28;20115;-36
2022/04/30 01:14:00;;;;;;;0.00;0.00;;;;;;;;;;4180338;28;20083;-36
2022/04/30 01:16:03;;;;;;;0.00;0.00;;;;;;;;;;4181654;28;20071;-36
2022/04/30 01:18:10;;;;;;;0.00;0.00;;;;;;;;;;4181152;28;20057;-36
2022/04/30 01:20:11;;;;;;;0.10;0.10;;;;;;;;;;4181507;28;20048;-37
2022/04/30 01:22:35;;;;;;;0.28;0.10;;;;;;;;;;4181531;28;20103;-37
2022/04/30 01:24:37;;;;;;;0.10;0.10;;;;;;;;;;4180233;28;20060;-36
2022/04/30 01:26:38;;;;;;;0.10;0.00;;;;;;;;;;4181400;28;20049;-36
2022/04/30 01:28:42;;;;;;;0.00;0.00;;;;;;;;;;4181641;28;20124;-36
2022/04/30 01:30:43;;;;;;;0.13;0.10;;;;;;;;;;4180223;28;20087;-36
2022/04/30 01:37:37;;;;;;;0.03;0.00;;;;;;;;;;4181155;28;20056;-36
2022/04/30 01:39:38;;;;;;;0.15;0.10;;;;;;;;;;4181275;28;20493;-37
2022/04/30 01:41:39;;;;;;;0.10;0.10;;;;;;;;;;4181342;28;20053;-36
2022/04/30 01:43:42;;;;;;;0.68;0.00;;;;;;;;;;4181360;28;20052;-36
2022/04/30 01:45:44;;;;;;;0.05;0.00;;;;;;;;;;4179706;28;20060;-37
2022/04/30 01:47:46;;;;;;;0.05;0.05;;;;;;;;;;4180937;28;20114;-36
2022/04/30 01:49:48;;;;;;;0.10;0.10;;;;;;;;;;4181128;28;20492;-37
2022/04/30 01:51:50;;;;;;;0.00;0.00;;;;;;;;;;4181134;28;20056;-36
2022/04/30 01:53:51;;;;;;;0.00;0.00;;;;;;;;;;4179777;28;20053;-36
2022/04/30 01:55:52;;;;;;;0.03;0.00;;;;;;;;;;4181204;28;20101;-36
2022/04/30 01:58:03;;;;;;;0.40;0.10;;;;;;;;;;4179832;28;20052;-36
2022/04/30 02:00:08;;;;;;;0.10;0.10;;;;;;;;;;4180929;28;20102;-37
2022/04/30 02:02:22;;;;;;;0.25;0.05;;;;;;;;;;4180719;28;20305;-36
2022/04/30 02:04:23;;;;;;;0.00;0.00;;;;;;;;;;4180425;28;20053;-37
2022/04/30 02:06:24;;;;;;;0.38;0.08;;;;;;;;;;4180750;28;20473;-36
2022/04/30 02:08:26;;;;;;;0.40;0.13;;;;;;;;;;4180720;28;20060;-36
2022/04/30 02:10:28;;;;;;;0.00;0.00;;;;;;;;;;4180719;28;20083;-36
2022/04/30 02:12:31;;;;;;;0.30;0.10;;;;;;;;;;4180974;28;20056;-36
2022/04/30 02:14:33;;;;;;;0.10;0.00;;;;;;;;;;4180654;28;20091;-36
2022/04/30 02:16:34;;;;;;;0.00;0.00;;;;;;;;;;4162266;28;20131;-36
2022/04/30 02:18:35;;;;;;;0.00;0.00;;;;;;;;;;4178849;28;20048;-36
2022/04/30 02:20:38;;;;;;;0.05;0.05;;;;;;;;;;4179667;28;20057;-37
2022/04/30 02:22:40;;;;;;;0.10;0.10;;;;;;;;;;4180490;28;20053;-36
2022/04/30 02:24:41;;;;;;;0.10;0.10;;;;;;;;;;4180592;28;20118;-36
2022/04/30 02:26:43;;;;;;;0.10;0.10;;;;;;;;;;4180517;28;20119;-37
2022/04/30 02:28:44;;;;;;;0.10;0.10;;;;;;;;;;4178993;28;20079;-36
2022/04/30 02:30:47;;;;;;;0.13;0.10;;;;;;;;;;4180708;28;20060;-36
2022/04/30 02:32:49;;;;;;;0.10;0.10;;;;;;;;;;4179978;28;20057;-36
2022/04/30 02:34:50;;;;;;;0.00;0.00;;;;;;;;;;4180375;28;20389;-37
2022/04/30 02:36:51;;;;;;;0.08;0.08;;;;;;;;;;4180552;28;20404;-36
2022/04/30 02:38:54;;;;;;;0.40;0.10;;;;;;;;;;4178947;28;20065;-37
2022/04/30 02:40:55;;;;;;;0.00;0.00;;;;;;;;;;4180364;28;20056;-36
2022/04/30 02:43:07;;;;;;;0.10;0.10;;;;;;;;;;4180093;28;20106;-37
2022/04/30 02:45:13;;;;;;;0.03;0.00;;;;;;;;;;4180322;28;20511;-36
2022/04/30 02:47:14;;;;;;;0.30;0.10;;;;;;;;;;4180491;28;20068;-36
2022/04/30 02:49:16;;;;;;;0.15;0.10;;;;;;;;;;4179839;28;20109;-36
2022/04/30 02:51:17;;;;;;;0.20;0.00;;;;;;;;;;4180190;28;20049;-36
2022/04/30 02:53:19;;;;;;;0.20;0.10;;;;;;;;;;4179938;28;20053;-36
2022/04/30 02:55:24;;;;;;;0.10;0.00;;;;;;;;;;4179868;28;20102;-37
2022/04/30 02:57:25;;;;;;;1.25;0.20;;;;;;;;;;4179867;28;20063;-36
2022/04/30 03:01:54;;;;;;;0.38;0.10;;;;;;;;;;4178661;28;20053;-36
2022/04/30 03:04:06;;;;;;;0.00;0.00;;;;;;;;;;4178254;28;20378;-36
2022/04/30 03:06:09;;;;;;;0.03;0.00;;;;;;;;;;4179846;28;20061;-36
2022/04/30 03:08:12;;;;;;;0.05;0.05;;;;;;;;;;4179720;28;20408;-36
2022/04/30 03:10:14;;;;;;;0.20;0.00;;;;;;;;;;4180061;28;20056;-36
2022/04/30 03:12:16;;;;;;;0.20;0.10;;;;;;;;;;4179577;28;20056;-36
2022/04/30 03:14:17;;;;;;;0.00;0.00;;;;;;;;;;4179743;28;20481;-36
2022/04/30 03:23:19;;;;;;;0.10;0.10;;;;;;;;;;4179756;28;20107;-37
2022/04/30 03:25:21;;;;;;;0.00;0.00;;;;;;;;;;4179464;28;20064;-36
2022/04/30 03:27:24;;;;;;;0.30;0.03;;;;;;;;;;4179139;28;20100;-36
2022/04/30 03:29:25;;;;;;;0.00;0.00;;;;;;;;;;4179061;28;20056;-36
2022/04/30 03:31:28;;;;;;;0.30;0.10;;;;;;;;;;4178213;28;20453;-36
2022/04/30 03:33:29;;;;;;;0.00;0.00;;;;;;;;;;4179101;28;20118;-36
2022/04/30 03:35:31;;;;;;;0.10;0.10;;;;;;;;;;4179186;28;20119;-36
2022/04/30 03:37:32;;;;;;;0.30;0.00;;;;;;;;;;4179621;28;20057;-37
2022/04/30 03:39:34;;;;;;;0.10;0.10;;;;;;;;;;4179339;28;20382;-36
2022/04/30 03:41:35;;;;;;;0.20;0.10;;;;;;;;;;4179400;28;20103;-37
2022/04/30 03:43:36;;;;;;;0.17;0.10;;;;;;;;;;4179084;28;20053;-36
2022/04/30 03:45:37;;;;;;;0.15;0.08;;;;;;;;;;4179181;28;20103;-37
2022/04/30 03:47:39;;;;;;;0.10;0.10;;;;;;;;;;4178598;28;20053;-36
2022/04/30 03:49:41;;;;;;;0.10;0.10;;;;;;;;;;4179411;28;20123;-36
2022/04/30 03:51:42;;;;;;;0.10;0.10;;;;;;;;;;4179125;28;20134;-36
2022/04/30 03:53:44;;;;;;;0.00;0.00;;;;;;;;;;4179092;28;20053;-36
2022/04/30 03:55:45;;;;;;;0.20;0.20;;;;;;;;;;4178919;28;20091;-36
2022/04/30 03:57:46;;;;;;;0.10;0.08;;;;;;;;;;4179095;28;20091;-36
2022/04/30 03:59:47;;;;;;;0.10;0.10;;;;;;;;;;4179048;28;20496;-36
2022/04/30 04:01:49;;;;;;;0.03;0.03;;;;;;;;;;4177726;28;20554;-36
2022/04/30 04:03:50;;;;;;;0.08;0.08;;;;;;;;;;4177322;28;20144;-36
2022/04/30 04:05:51;;;;;;;0.05;0.05;;;;;;;;;;4177751;28;20056;-37
2022/04/30 04:07:54;;;;;;;0.10;0.10;;;;;;;;;;4177738;28;20053;-36
2022/04/30 04:09:56;;;;;;;0.10;0.10;;;;;;;;;;4177556;28;20087;-36
2022/04/30 04:11:57;;;;;;;0.10;0.10;;;;;;;;;;4179229;28;20065;-36
2022/04/30 04:18:37;;;;;;;0.03;0.03;;;;;;;;;;4178392;28;20052;-37
2022/04/30 04:20:39;;;;;;;0.10;0.10;;;;;;;;;;4179193;28;20114;-36
2022/04/30 04:22:40;;;;;;;0.20;0.10;;;;;;;;;;4178823;28;20056;-36
2022/04/30 04:27:01;;;;;;;0.10;0.08;;;;;;;;;;4179134;28;20099;-36
2022/04/30 04:29:02;;;;;;;0.00;0.00;;;;;;;;;;4178865;28;20057;-36
2022/04/30 04:31:03;;;;;;;0.00;0.00;;;;;;;;;;4178913;28;20049;-36
2022/04/30 04:33:05;;;;;;;0.03;0.03;;;;;;;;;;4176996;28;20053;-36
2022/04/30 04:35:06;;;;;;;0.20;0.10;;;;;;;;;;4178794;28;20485;-36
2022/04/30 04:37:08;;;;;;;0.20;0.10;;;;;;;;;;4179000;28;20048;-36
2022/04/30 04:39:12;;;;;;;0.47;0.10;;;;;;;;;;4179067;28;20053;-37
2022/04/30 04:41:13;;;;;;;0.30;0.10;;;;;;;;;;4182246;28;20268;-36
2022/04/30 04:43:14;;;;;;;0.30;0.03;;;;;;;;;;4180662;28;20083;-36
2022/04/30 04:45:15;;;;;;;0.10;0.10;;;;;;;;;;4182069;28;20102;-36
2022/04/30 04:47:17;;;;;;;0.10;0.03;;;;;;;;;;4182009;28;20052;-37
2022/04/30 04:49:18;;;;;;;0.10;0.10;;;;;;;;;;4181498;28;20450;-36
2022/04/30 04:51:21;;;;;;;0.10;0.10;;;;;;;;;;4181895;28;20091;-36
2022/04/30 04:53:22;;;;;;;0.17;0.10;;;;;;;;;;4181972;28;20056;-36
2022/04/30 04:55:23;;;;;;;0.13;0.10;;;;;;;;;;4181907;28;20058;-36
2022/04/30 04:57:24;;;;;;;0.10;0.08;;;;;;;;;;4181655;28;20420;-36
2022/04/30 04:59:25;;;;;;;0.00;0.00;;;;;;;;;;4181807;28;20056;-36
2022/04/30 05:01:26;;;;;;;0.30;0.10;;;;;;;;;;4182105;28;20052;-36
2022/04/30 05:03:27;;;;;;;0.10;0.00;;;;;;;;;;4179831;28;20075;-36
2022/04/30 05:05:29;;;;;;;0.10;0.10;;;;;;;;;;4181834;28;20409;-37
2022/04/30 05:07:30;;;;;;;0.00;0.00;;;;;;;;;;4181375;28;20416;-37
2022/04/30 05:09:31;;;;;;;0.00;0.00;;;;;;;;;;4181544;28;20052;-36
2022/04/30 05:11:33;;;;;;;0.00;0.00;;;;;;;;;;4181699;28;20496;-36
2022/04/30 05:13:34;;;;;;;0.20;0.10;;;;;;;;;;4180009;28;20501;-36
2022/04/30 05:15:35;;;;;;;0.10;0.10;;;;;;;;;;4181832;28;20052;-36
2022/04/30 05:17:36;;;;;;;0.22;0.10;;;;;;;;;;4180910;28;20146;-37
2022/04/30 05:19:38;;;;;;;0.52;0.10;;;;;;;;;;4181527;28;20052;-36
2022/04/30 05:21:39;;;;;;;0.08;0.03;;;;;;;;;;4181650;28;20053;-36
2022/04/30 05:23:40;;;;;;;0.00;0.00;;;;;;;;;;4181412;28;20381;-37
2022/04/30 05:25:41;;;;;;;0.00;0.00;;;;;;;;;;4181444;28;20057;-36
2022/04/30 05:27:42;;;;;;;0.08;0.03;;;;;;;;;;4180212;28;20060;-37
2022/04/30 05:29:44;;;;;;;0.10;0.10;;;;;;;;;;4181592;28;20052;-36
2022/04/30 05:31:45;;;;;;;0.60;0.00;;;;;;;;;;4181600;28;20072;-36
2022/04/30 05:33:46;;;;;;;0.10;0.10;;;;;;;;;;4181261;28;20106;-36
2022/04/30 05:35:47;;;;;;;0.22;0.10;;;;;;;;;;4181034;28;20048;-36
2022/04/30 05:37:48;;;;;;;0.03;0.03;;;;;;;;;;4181062;28;20382;-37
2022/04/30 05:39:50;;;;;;;0.10;0.10;;;;;;;;;;4181174;28;20056;-36
2022/04/30 05:41:51;;;;;;;0.08;0.08;;;;;;;;;;4181199;28;20434;-37
2022/04/30 05:43:52;;;;;;;0.00;0.00;;;;;;;;;;4181325;28;20103;-36
2022/04/30 05:45:53;;;;;;;0.00;0.00;;;;;;;;;;4181257;28;20053;-36
2022/04/30 05:47:54;;;;;;;0.00;0.00;;;;;;;;;;4179299;28;20509;-36
2022/04/30 05:49:56;;;;;;;0.00;0.00;;;;;;;;;;4181098;28;20479;-36
2022/04/30 05:51:57;;;;;;;0.17;0.08;;;;;;;;;;4180166;28;20059;-36
2022/04/30 05:53:58;;;;;;;0.28;0.10;;;;;;;;;;4179549;28;20087;-36
2022/04/30 05:55:59;;;;;;;0.10;0.10;;;;;;;;;;4180885;28;20480;-36
2022/04/30 05:58:00;;;;;;;0.03;0.00;;;;;;;;;;4181047;28;20711;-36
2022/04/30 06:00:03;;;;;;;0.00;0.00;;;;;;;;;;4179710;28;20138;-36
2022/04/30 06:02:07;;;;;;;0.10;0.10;;;;;;;;;;4180809;28;20052;-36
2022/04/30 06:04:08;;;;;;;0.20;0.13;;;;;;;;;;4179081;28;20466;-36
2022/04/30 06:06:09;;;;;;;0.03;0.03;;;;;;;;;;4180777;28;20099;-36
2022/04/30 06:08:11;;;;;;;0.10;0.10;;;;;;;;;;4180723;28;20068;-36
2022/04/30 06:10:12;;;;;;;0.10;0.10;;;;;;;;;;4180620;28;20455;-36
2022/04/30 06:12:13;;;;;;;0.10;0.10;;;;;;;;;;4180844;28;20602;-37
2022/04/30 06:14:15;;;;;;;0.40;0.10;;;;;;;;;;4179253;28;20488;-37
2022/04/30 06:16:16;;;;;;;0.10;0.10;;;;;;;;;;4180797;28;20080;-36
2022/04/30 06:18:17;;;;;;;0.10;0.10;;;;;;;;;;4178941;28;20087;-36
2022/04/30 06:20:18;;;;;;;0.00;0.00;;;;;;;;;;4180830;28;20052;-36
2022/04/30 06:22:20;;;;;;;0.10;0.10;;;;;;;;;;4180512;28;20057;-36
2022/04/30 06:24:21;;;;;;;0.20;0.10;;;;;;;;;;4180462;28;20050;-36
2022/04/30 06:26:22;;;;;;;0.00;0.00;;;;;;;;;;4180720;28;20049;-36
2022/04/30 06:28:23;;;;;;;0.13;0.10;;;;;;;;;;4180409;28;20853;-36
2022/04/30 06:30:24;;;;;;;0.00;0.00;;;;;;;;;;4180723;28;20061;-36
2022/04/30 06:32:26;;;;;;;0.00;0.00;;;;;;;;;;4180421;28;20106;-36
2022/04/30 06:34:27;;;;;;;0.10;0.10;;;;;;;;;;4180094;28;20385;-37
2022/04/30 06:36:28;;;;;;;0.10;0.10;;;;;;;;;;4180181;28;20163;-36
2022/04/30 06:38:30;;;;;;;0.17;0.10;;;;;;;;;;4180248;28;20496;-37
2022/04/30 06:40:31;;;;;;;0.20;0.10;;;;;;;;;;4180497;28;20052;-36
2022/04/30 06:42:40;;;;;;;0.00;0.00;;;;;;;;;;4180089;28;20056;-36
2022/04/30 06:44:41;;;;;;;0.15;0.15;;;;;;;;;;4180301;28;20056;-36
2022/04/30 06:46:43;;;;;;;0.03;0.03;;;;;;;;;;4162418;28;20050;-37
2022/04/30 06:48:47;;;;;;;0.08;0.08;;;;;;;;;;4179575;28;20057;-36
2022/04/30 06:50:48;;;;;;;0.00;0.00;;;;;;;;;;4180096;28;20064;-37
2022/04/30 06:57:29;;;;;;;0.10;0.10;;;;;;;;;;4179862;28;19966;-36
2022/04/30 06:59:33;;;;;;;0.13;0.10;;;;;;;;;;4180427;28;20060;-36
2022/04/30 07:03:41;;;;;;;0.55;0.10;;;;;;;;;;4177689;28;20436;-36
2022/04/30 07:05:42;;;;;;;0.10;0.00;;;;;;;;;;4179906;28;20065;-36
2022/04/30 07:07:43;;;;;;;0.05;0.05;;;;;;;;;;4179190;28;20060;-36
2022/04/30 07:09:45;;;;;;;0.00;0.00;;;;;;;;;;4178433;28;20110;-36
2022/04/30 07:11:46;;;;;;;0.05;0.00;;;;;;;;;;4180086;28;20074;-36
2022/04/30 07:13:47;;;;;;;0.10;0.10;;;;;;;;;;4179410;28;20061;-37
2022/04/30 07:15:48;;;;;;;0.30;0.10;;;;;;;;;;4179617;28;20058;-36
2022/04/30 07:17:49;;;;;;;0.40;0.15;;;;;;;;;;4179024;28;20748;-36
2022/04/30 07:19:51;;;;;;;0.10;0.10;;;;;;;;;;4179572;28;20053;-36
2022/04/30 07:21:52;;;;;;;0.00;0.00;;;;;;;;;;4179601;28;20451;-37
2022/04/30 07:23:54;;;;;;;0.00;0.00;;;;;;;;;;4179623;28;20060;-36
2022/04/30 07:25:55;;;;;;;0.00;0.00;;;;;;;;;;4179550;28;20052;-36
2022/04/30 07:27:56;;;;;;;0.28;0.10;;;;;;;;;;4179509;28;20428;-36
2022/04/30 07:29:58;;;;;;;0.00;0.00;;;;;;;;;;4179497;28;20045;-36
2022/04/30 07:31:59;;;;;;;0.00;0.00;;;;;;;;;;4179421;28;20057;-36
2022/04/30 07:34:01;;;;;;;0.20;0.10;;;;;;;;;;4178920;28;20049;-36
2022/04/30 07:36:03;;;;;;;0.00;0.00;;;;;;;;;;4177968;28;20394;-37
2022/04/30 07:38:04;;;;;;;0.30;0.10;;;;;;;;;;4179475;28;20072;-36
2022/04/30 07:40:08;;;;;;;0.00;0.00;;;;;;;;;;4179476;28;20060;-36
2022/04/30 07:42:10;;;;;;;0.00;0.00;;;;;;;;;;4179289;28;20057;-36
2022/04/30 07:44:11;;;;;;;0.00;0.00;;;;;;;;;;4179439;28;20095;-37
2022/04/30 07:46:12;;;;;;;0.00;0.00;;;;;;;;;;4178045;28;20052;-36
2022/04/30 07:48:13;;;;;;;0.03;0.00;;;;;;;;;;4178514;28;20406;-36
2022/04/30 07:50:17;;;;;;;0.75;0.10;;;;;;;;;;4179285;28;20476;-36
2022/04/30 07:52:18;;;;;;;0.52;0.00;;;;;;;;;;4179470;28;20118;-36
2022/04/30 07:54:20;;;;;;;0.10;0.10;;;;;;;;;;4179058;28;20052;-36
2022/04/30 07:56:21;;;;;;;0.10;0.10;;;;;;;;;;4179196;28;20049;-36
2022/04/30 07:58:24;;;;;;;0.20;0.15;;;;;;;;;;4178814;28;20103;-36
2022/04/30 08:00:26;;;;;;;0.00;0.00;;;;;;;;;;4178950;28;20107;-37
2022/04/30 08:02:27;;;;;;;0.05;0.00;;;;;;;;;;4178770;28;20099;-36
2022/04/30 08:04:29;;;;;;;0.13;0.10;;;;;;;;;;4178508;28;20122;-36
2022/04/30 08:06:30;;;;;;;0.05;0.00;;;;;;;;;;4161185;28;20104;-36
2022/04/30 08:08:31;;;;;;;0.20;0.10;;;;;;;;;;4178812;28;20433;-36
2022/04/30 08:10:32;;;;;;;0.10;0.10;;;;;;;;;;4179092;28;20114;-36
2022/04/30 08:12:33;;;;;;;0.10;0.00;;;;;;;;;;4179053;28;20057;-36
2022/04/30 08:14:34;;;;;;;0.20;0.10;;;;;;;;;;4178524;28;20118;-36
2022/04/30 08:16:35;;;;;;;0.10;0.10;;;;;;;;;;4178651;28;20378;-36
2022/04/30 08:18:37;;;;;;;0.10;0.10;;;;;;;;;;4178580;28;20270;-36
2022/04/30 08:20:39;;;;;;;0.10;0.10;;;;;;;;;;4179080;28;20052;-37
2022/04/30 08:22:40;;;;;;;0.00;0.00;;;;;;;;;;4178809;28;20408;-36
2022/04/30 08:24:41;;;;;;;0.00;0.00;;;;;;;;;;4179249;28;20098;-37
2022/04/30 08:26:44;;;;;;;0.00;0.00;;;;;;;;;;4177550;28;20106;-36
2022/04/30 08:28:45;;;;;;;0.00;0.00;;;;;;;;;;4179121;28;20049;-36
2022/04/30 08:30:46;;;;;;;0.10;0.10;;;;;;;;;;4178799;28;20518;-36
2022/04/30 08:32:48;;;;;;;0.15;0.10;;;;;;;;;;4178381;28;20119;-36
2022/04/30 08:34:49;;;;;;;0.03;0.03;;;;;;;;;;4178933;28;20057;-37
2022/04/30 08:36:51;;;;;;;0.13;0.10;;;;;;;;;;4178838;28;20049;-36
2022/04/30 08:38:52;;;;;;;0.20;0.20;;;;;;;;;;4177306;28;20535;-36
2022/04/30 08:40:53;;;;;;;0.10;0.10;;;;;;;;;;4178720;28;20052;-36
2022/04/30 08:42:55;;;;;;;0.00;0.00;;;;;;;;;;4178881;28;20053;-36
2022/04/30 08:44:56;;;;;;;0.10;0.10;;;;;;;;;;4178787;28;20052;-36
2022/04/30 08:46:57;;;;;;;0.00;0.00;;;;;;;;;;4178664;28;20072;-36
2022/04/30 08:48:59;;;;;;;0.10;0.00;;;;;;;;;;4176916;28;20057;-37
2022/04/30 08:51:02;;;;;;;0.17;0.10;;;;;;;;;;4178982;28;20049;-36
2022/04/30 08:53:04;;;;;;;0.28;0.13;;;;;;;;;;4178613;28;20198;-36
2022/04/30 08:55:06;;;;;;;0.10;0.05;;;;;;;;;;4178516;28;20056;-36
2022/04/30 08:57:07;;;;;;;0.00;0.00;;;;;;;;;;4178808;28;20053;-36
2022/04/30 08:59:09;;;;;;;0.00;0.00;;;;;;;;;;4178562;28;20087;-36
2022/04/30 09:01:10;;;;;;;0.25;0.20;;;;;;;;;;4178635;28;20057;-36
2022/04/30 09:03:17;;;;;;;0.00;0.00;;;;;;;;;;4177755;28;20102;-36
2022/04/30 09:05:19;;;;;;;0.65;0.10;;;;;;;;;;4178557;28;20430;-36
2022/04/30 09:07:22;;;;;;;0.10;0.08;;;;;;;;;;4178438;28;20049;-36
2022/04/30 09:09:28;;;;;;;0.05;0.00;;;;;;;;;;4178439;28;20501;-37
2022/04/30 09:11:30;;;;;;;0.13;0.10;;;;;;;;;;4178572;28;20143;-36
2022/04/30 09:13:32;;;;;;;0.35;0.00;;;;;;;;;;4178262;28;20114;-36
2022/04/30 09:15:33;;;;;;;0.00;0.00;;;;;;;;;;4178332;28;20053;-36
2022/04/30 09:17:35;;;;;;;0.47;0.10;;;;;;;;;;4177899;28;20536;-36
2022/04/30 09:20:06;;;;;;;0.00;0.00;;;;;;;;;;4178718;28;20129;-36
2022/04/30 09:22:07;;;;;;;0.10;0.05;;;;;;;;;;4173860;28;20057;-36
2022/04/30 09:24:08;;;;;;;0.10;0.10;;;;;;;;;;4178570;28;20093;-36
2022/04/30 09:26:10;;;;;;;0.08;0.08;;;;;;;;;;4177555;28;20099;-36
2022/04/30 09:28:22;;;;;;;0.03;0.03;;;;;;;;;;4181258;28;20053;-36
2022/04/30 09:30:27;;;;;;;0.03;0.03;;;;;;;;;;4180117;28;20559;-36
2022/04/30 09:32:28;;;;;;;0.10;0.10;;;;;;;;;;4181273;28;20508;-36
2022/04/30 09:39:20;;;;;;;0.03;0.03;;;;;;;;;;4180138;28;20099;-35
2022/04/30 09:41:29;;;;;;;0.08;0.03;;;;;;;;;;4181209;28;20500;-36
2022/04/30 09:43:31;;;;;;;;;;;;;;;;;;4181485;28;20412;-36
2022/04/30 09:45:33;;;;;;;0.13;0.00;;;;;;;;;;4181233;28;19920;-36
2022/04/30 09:47:35;;;;;;;0.00;0.00;;;;;;;;;;4180663;28;20523;-36
2022/04/30 09:54:16;;;;;;;0.00;0.00;;;;;;;;;;4180817;28;20085;-36
2022/04/30 09:56:18;;;;;;;0.28;0.00;;;;;;;;;;4180960;28;20063;-36
2022/04/30 09:58:24;;;;;;;0.20;0.00;;;;;;;;;;4179445;28;20060;-36
2022/04/30 10:00:26;;;;;;;0.00;0.00;;;;;;;;;;4179707;28;20057;-36
2022/04/30 10:02:28;;;;;;;0.17;0.10;;;;;;;;;;4179320;28;20061;-36
2022/04/30 10:04:30;;;;;;;0.35;0.20;;;;;;;;;;4180625;28;20155;-36
2022/04/30 10:06:32;;;;;;;0.00;0.00;;;;;;;;;;4180826;28;20558;-36
2022/04/30 10:08:37;;;;;;;0.10;0.10;;;;;;;;;;4179354;28;20099;-36
2022/04/30 10:10:46;;;;;;;0.17;0.10;;;;;;;;;;4179786;28;20049;-36
2022/04/30 10:12:52;;;;;;;0.08;0.00;;;;;;;;;;4180516;28;20064;-36
2022/04/30 10:15:21;;;;;;;0.10;0.10;;;;;;;;;;4179599;28;20417;-36
2022/04/30 10:17:25;;;;;;;0.17;0.17;;;;;;;;;;4162856;28;20115;-36
2022/04/30 10:19:26;;;;;;;0.47;0.00;;;;;;;;;;4178911;28;20405;-36
2022/04/30 10:21:27;;;;;;;0.00;0.00;;;;;;;;;;4180895;28;20057;-36
2022/04/30 10:23:29;;;;;;;0.43;0.43;;;;;;;;;;4180549;28;20052;-36
2022/04/30 10:25:35;;;;;;;0.10;0.10;;;;;;;;;;4180499;28;20056;-36
2022/04/30 10:27:39;;;;;;;0.32;0.15;;;;;;;;;;4180595;28;20094;-36
2022/04/30 10:29:56;;;;;;;0.00;0.00;;;;;;;;;;4180619;28;20103;-36
2022/04/30 10:31:58;;;;;;;1.48;0.10;;;;;;;;;;4180364;28;20057;-36
2022/04/30 10:33:59;;;;;;;0.43;0.20;;;;;;;;;;4180113;28;20057;-35
2022/04/30 10:36:04;;;;;;;0.88;0.10;;;;;;;;;;4178999;28;20064;-36
2022/04/30 10:38:06;;;;;;;0.20;0.08;;;;;;;;;;4179871;28;20064;-36
2022/04/30 10:40:11;;;;;;;0.08;0.08;;;;;;;;;;4180515;28;20121;-36
2022/04/30 10:42:14;;;;;;;0.10;0.10;;;;;;;;;;4178978;28;20108;-36
2022/04/30 10:44:15;;;;;;;0.25;0.10;;;;;;;;;;4180371;28;20064;-36
2022/04/30 10:46:20;;;;;;;0.40;0.30;;;;;;;;;;4178885;28;20147;-36
2022/04/30 10:48:21;;;;;;;0.20;0.10;;;;;;;;;;4179846;28;20059;-36
2022/04/30 10:50:23;;;;;;;0.10;0.00;;;;;;;;;;4180239;28;20516;-36
2022/04/30 10:52:25;;;;;;;0.17;0.10;;;;;;;;;;4178759;28;20513;-36
2022/04/30 10:54:29;;;;;;;0.10;0.08;;;;;;;;;;4180248;28;20060;-36
2022/04/30 10:56:30;;;;;;;0.10;0.10;;;;;;;;;;4180254;28;20057;-36
2022/04/30 10:58:32;;;;;;;0.10;0.10;;;;;;;;;;4179913;28;20049;-36
2022/04/30 11:00:33;;;;;;;0.10;0.00;;;;;;;;;;4180181;28;20057;-36
2022/04/30 11:02:34;;;;;;;0.63;0.10;;;;;;;;;;4179371;28;20064;-36
2022/04/30 11:04:35;;;;;;;0.22;0.10;;;;;;;;;;4178671;28;20435;-36
2022/04/30 11:06:36;;;;;;;0.00;0.00;;;;;;;;;;4178536;28;20052;-36
2022/04/30 11:08:37;;;;;;;0.10;0.10;;;;;;;;;;4178548;28;20118;-36
2022/04/30 11:10:48;;;;;;;0.98;0.20;;;;;;;;;;4179652;28;20334;-36
2022/04/30 11:12:50;;;;;;;0.25;0.10;;;;;;;;;;4178386;28;20281;-36
2022/04/30 11:14:54;;;;;;;0.20;0.10;;;;;;;;;;4178283;28;20102;-37
2022/04/30 11:16:55;;;;;;;0.40;0.03;;;;;;;;;;4179822;28;20053;-36
2022/04/30 11:19:05;;;;;;;0.20;0.10;;;;;;;;;;4179560;28;20055;-36
2022/04/30 11:21:06;;;;;;;0.03;0.03;;;;;;;;;;4179755;28;20057;-36
2022/04/30 11:23:08;;;;;;;0.20;0.10;;;;;;;;;;4179958;28;20060;-35
2022/04/30 11:25:09;;;;;;;0.68;0.10;;;;;;;;;;4179423;28;20049;-35
2022/04/30 11:27:12;;;;;;;0.73;0.20;;;;;;;;;;4179562;28;20053;-37
2022/04/30 11:29:13;;;;;;;0.10;0.10;;;;;;;;;;4179578;28;20064;-36
2022/04/30 11:31:19;;;;;;;0.40;0.10;;;;;;;;;;4178364;28;20056;-36
2022/04/30 11:33:31;;;;;;;0.10;0.10;;;;;;;;;;4178994;28;20069;-36
2022/04/30 11:35:32;;;;;;;0.25;0.20;;;;;;;;;;4178475;28;20065;-36
2022/04/30 11:37:38;;;;;;;0.10;0.10;;;;;;;;;;4177953;28;20061;-35
2022/04/30 11:39:39;;;;;;;0.30;0.17;;;;;;;;;;4179539;28;20119;-36
2022/04/30 11:41:41;;;;;;;0.30;0.10;;;;;;;;;;4179385;28;20057;-36
2022/04/30 11:43:43;;;;;;;0.38;0.10;;;;;;;;;;4177960;28;20052;-36
2022/04/30 11:45:46;;;;;;;0.10;0.10;;;;;;;;;;4179574;28;20057;-36
2022/04/30 11:47:50;;;;;;;0.10;0.10;;;;;;;;;;4178742;28;20061;-35
2022/04/30 11:50:06;;;;;;;0.40;0.15;;;;;;;;;;4178521;28;20357;-36
2022/04/30 11:52:08;;;;;;;0.40;0.15;;;;;;;;;;4161441;28;20088;-35
2022/04/30 11:54:11;;;;;;;0.35;0.35;;;;;;;;;;4178913;28;20097;-35
2022/04/30 11:56:12;;;;;;;1.25;0.10;;;;;;;;;;4179020;28;20057;-36
2022/04/30 11:58:13;;;;;;;0.15;0.10;;;;;;;;;;4179146;28;20075;-35
2022/04/30 12:00:17;;;;;;;0.85;0.10;;;;;;;;;;4177828;28;20104;-36
2022/04/30 12:02:20;;;;;;;0.10;0.10;;;;;;;;;;4179091;28;20049;-35
2022/04/30 12:04:22;;;;;;;0.10;0.10;;;;;;;;;;4178554;28;20060;-35
2022/04/30 12:06:25;;;;;;;0.08;0.05;;;;;;;;;;4179071;28;20165;-35
2022/04/30 12:08:29;;;;;;;0.10;0.10;;;;;;;;;;4178831;28;20065;-35
2022/04/30 12:10:30;;;;;;;0.20;0.10;;;;;;;;;;4179309;28;20068;-35
2022/04/30 12:12:31;;;;;;;0.10;0.10;;;;;;;;;;4178917;28;20114;-35
2022/04/30 12:14:43;;;;;;;0.40;0.10;;;;;;;;;;4179040;28;20057;-35
2022/04/30 12:16:45;;;;;;;0.32;0.20;;;;;;;;;;4179058;28;20095;-35
2022/04/30 12:25:46;;;;;;;0.80;0.10;;;;;;;;;;4162593;28;20053;-35
2022/04/30 12:27:55;;;;;;;1.63;0.20;;;;;;;;;;4162244;28;20060;-35
2022/04/30 12:30:00;;;;;;;0.40;0.20;;;;;;;;;;4162406;28;20053;-35
2022/04/30 12:32:07;;;;;;;0.10;0.10;;;;;;;;;;4162735;28;20088;-35
2022/04/30 12:34:17;;;;;;;1.05;0.20;;;;;;;;;;4162083;28;20053;-35
2022/04/30 12:36:18;;;;;;;0.10;0.10;;;;;;;;;;4162391;28;20061;-35
2022/04/30 12:38:19;;;;;;;0.38;0.10;;;;;;;;;;4162474;28;20054;-35
2022/04/30 12:40:20;;;;;;;0.50;0.20;;;;;;;;;;4162191;28;20555;-35
2022/04/30 12:42:21;;;;;;;1.20;0.10;;;;;;;;;;4162286;28;20417;-35
2022/04/30 12:44:22;;;;;;;1.27;0.20;;;;;;;;;;4162229;28;20057;-36
2022/04/30 12:46:23;;;;;;;0.10;0.10;;;;;;;;;;4162499;28;20426;-35
2022/04/30 12:48:25;;;;;;;0.22;0.20;;;;;;;;;;4161680;28;20111;-35
2022/04/30 12:50:28;;;;;;;0.32;0.20;;;;;;;;;;4162524;28;20056;-35
2022/04/30 12:52:30;;;;;;;0.10;0.10;;;;;;;;;;4162117;28;20061;-35
2022/04/30 12:54:31;;;;;;;0.20;0.20;;;;;;;;;;4162104;28;20061;-35
2022/04/30 12:56:32;;;;;;;0.20;0.10;;;;;;;;;;4162130;28;20095;-35
2022/04/30 12:58:34;;;;;;;0.30;0.20;;;;;;;;;;4162141;28;20060;-35